sensor_id;sensor_type;location;lat;lon;timestamp;P1;durP1;ratioP1;P2;durP2;ratioP2
65533;SDS011;53640;55.838;37.184;2023-04-24T00:01:30;5.20;;;3.42;;
65533;SDS011;53640;55.838;37.184;2023-04-24T00:03:58;6.47;;;3.75;;
65533;SDS011;53640;55.838;37.184;2023-04-24T00:06:26;6.15;;;3.95;;
65533;SDS011;53640;55.838;37.184;2023-04-24T00:09:00;6.40;;;3.97;;
65533;SDS011;53640;55.838;37.184;2023-04-24T00:11:28;5.63;;;4.22;;
65533;SDS011;53640;55.838;37.184;2023-04-24T00:13:56;5.85;;;4.00;;
65533;SDS011;53640;55.838;37.184;2023-04-24T00:16:23;6.03;;;3.80;;
65533;SDS011;53640;55.838;37.184;2023-04-24T00:18:49;7.88;;;4.07;;
65533;SDS011;53640;55.838;37.184;2023-04-24T00:21:19;5.78;;;3.95;;
65533;SDS011;53640;55.838;37.184;2023-04-24T00:23:46;7.05;;;3.55;;
65533;SDS011;53640;55.838;37.184;2023-04-24T00:26:12;4.47;;;3.25;;
65533;SDS011;53640;55.838;37.184;2023-04-24T00:28:39;7.55;;;4.43;;
65533;SDS011;53640;55.838;37.184;2023-04-24T00:31:06;7.32;;;4.55;;
65533;SDS011;53640;55.838;37.184;2023-04-24T00:33:33;9.40;;;4.72;;
65533;SDS011;53640;55.838;37.184;2023-04-24T00:36:00;5.60;;;4.28;;
65533;SDS011;53640;55.838;37.184;2023-04-24T00:38:28;6.85;;;4.30;;
65533;SDS011;53640;55.838;37.184;2023-04-24T00:40:55;11.15;;;5.00;;
65533;SDS011;53640;55.838;37.184;2023-04-24T00:43:23;8.02;;;5.22;;
65533;SDS011;53640;55.838;37.184;2023-04-24T00:45:49;13.00;;;5.72;;
65533;SDS011;53640;55.838;37.184;2023-04-24T00:48:15;10.00;;;5.60;;
65533;SDS011;53640;55.838;37.184;2023-04-24T00:50:44;9.20;;;5.68;;
65533;SDS011;53640;55.838;37.184;2023-04-24T00:53:13;8.82;;;5.05;;
65533;SDS011;53640;55.838;37.184;2023-04-24T00:55:41;8.77;;;5.65;;
65533;SDS011;53640;55.838;37.184;2023-04-24T00:58:08;9.93;;;6.57;;
65533;SDS011;53640;55.838;37.184;2023-04-24T01:00:35;11.38;;;6.20;;
65533;SDS011;53640;55.838;37.184;2023-04-24T01:03:03;10.93;;;6.10;;
65533;SDS011;53640;55.838;37.184;2023-04-24T01:05:31;9.93;;;5.60;;
65533;SDS011;53640;55.838;37.184;2023-04-24T01:08:01;10.30;;;6.13;;
65533;SDS011;53640;55.838;37.184;2023-04-24T01:10:29;10.55;;;6.22;;
65533;SDS011;53640;55.838;37.184;2023-04-24T01:13:00;12.55;;;5.53;;
65533;SDS011;53640;55.838;37.184;2023-04-24T01:15:30;10.68;;;6.57;;
65533;SDS011;53640;55.838;37.184;2023-04-24T01:17:57;9.50;;;5.97;;
65533;SDS011;53640;55.838;37.184;2023-04-24T01:20:23;9.73;;;6.40;;
65533;SDS011;53640;55.838;37.184;2023-04-24T01:22:52;12.05;;;7.20;;
65533;SDS011;53640;55.838;37.184;2023-04-24T01:25:24;11.85;;;7.43;;
65533;SDS011;53640;55.838;37.184;2023-04-24T01:27:57;9.60;;;6.15;;
65533;SDS011;53640;55.838;37.184;2023-04-24T01:30:23;9.23;;;6.68;;
65533;SDS011;53640;55.838;37.184;2023-04-24T01:32:51;12.30;;;6.60;;
65533;SDS011;53640;55.838;37.184;2023-04-24T01:35:19;11.85;;;6.95;;
65533;SDS011;53640;55.838;37.184;2023-04-24T01:37:46;9.60;;;6.43;;
65533;SDS011;53640;55.838;37.184;2023-04-24T01:40:15;11.77;;;5.93;;
65533;SDS011;53640;55.838;37.184;2023-04-24T01:42:42;12.52;;;6.78;;
65533;SDS011;53640;55.838;37.184;2023-04-24T01:45:10;11.02;;;6.30;;
65533;SDS011;53640;55.838;37.184;2023-04-24T01:47:38;12.05;;;6.30;;
65533;SDS011;53640;55.838;37.184;2023-04-24T01:50:07;10.55;;;6.80;;
65533;SDS011;53640;55.838;37.184;2023-04-24T01:52:35;12.45;;;6.80;;
65533;SDS011;53640;55.838;37.184;2023-04-24T01:55:03;13.27;;;7.20;;
65533;SDS011;53640;55.838;37.184;2023-04-24T01:57:31;13.20;;;7.25;;
65533;SDS011;53640;55.838;37.184;2023-04-24T01:59:59;14.50;;;7.63;;
65533;SDS011;53640;55.838;37.184;2023-04-24T02:02:26;15.15;;;7.18;;
65533;SDS011;53640;55.838;37.184;2023-04-24T02:04:56;11.70;;;7.47;;
65533;SDS011;53640;55.838;37.184;2023-04-24T02:07:23;15.57;;;7.85;;
65533;SDS011;53640;55.838;37.184;2023-04-24T02:09:49;13.02;;;7.55;;
65533;SDS011;53640;55.838;37.184;2023-04-24T02:12:16;14.63;;;7.72;;
65533;SDS011;53640;55.838;37.184;2023-04-24T02:14:43;12.30;;;7.15;;
65533;SDS011;53640;55.838;37.184;2023-04-24T02:17:10;10.25;;;6.72;;
65533;SDS011;53640;55.838;37.184;2023-04-24T02:19:39;9.50;;;6.72;;
65533;SDS011;53640;55.838;37.184;2023-04-24T02:22:05;8.43;;;6.07;;
65533;SDS011;53640;55.838;37.184;2023-04-24T02:24:34;10.05;;;7.25;;
65533;SDS011;53640;55.838;37.184;2023-04-24T02:27:00;12.48;;;6.88;;
65533;SDS011;53640;55.838;37.184;2023-04-24T02:29:28;11.13;;;7.28;;
65533;SDS011;53640;55.838;37.184;2023-04-24T02:31:55;12.63;;;7.45;;
65533;SDS011;53640;55.838;37.184;2023-04-24T02:34:25;13.80;;;8.07;;
65533;SDS011;53640;55.838;37.184;2023-04-24T02:36:54;11.77;;;7.38;;
65533;SDS011;53640;55.838;37.184;2023-04-24T02:39:23;11.85;;;7.70;;
65533;SDS011;53640;55.838;37.184;2023-04-24T02:41:50;10.85;;;6.95;;
65533;SDS011;53640;55.838;37.184;2023-04-24T02:44:17;14.05;;;7.65;;
65533;SDS011;53640;55.838;37.184;2023-04-24T02:46:45;15.27;;;7.63;;
65533;SDS011;53640;55.838;37.184;2023-04-24T02:49:12;12.68;;;7.40;;
65533;SDS011;53640;55.838;37.184;2023-04-24T02:51:39;10.07;;;6.80;;
65533;SDS011;53640;55.838;37.184;2023-04-24T02:54:08;11.25;;;6.90;;
65533;SDS011;53640;55.838;37.184;2023-04-24T02:56:39;10.45;;;6.60;;
65533;SDS011;53640;55.838;37.184;2023-04-24T02:59:07;11.38;;;6.40;;
65533;SDS011;53640;55.838;37.184;2023-04-24T03:01:36;9.60;;;7.03;;
65533;SDS011;53640;55.838;37.184;2023-04-24T03:04:05;12.10;;;7.28;;
65533;SDS011;53640;55.838;37.184;2023-04-24T03:06:32;11.57;;;7.15;;
65533;SDS011;53640;55.838;37.184;2023-04-24T03:08:59;15.02;;;7.72;;
65533;SDS011;53640;55.838;37.184;2023-04-24T03:11:26;9.85;;;6.35;;
65533;SDS011;53640;55.838;37.184;2023-04-24T03:13:52;10.82;;;7.00;;
65533;SDS011;53640;55.838;37.184;2023-04-24T03:16:20;10.70;;;6.78;;
65533;SDS011;53640;55.838;37.184;2023-04-24T03:18:47;11.65;;;6.88;;
65533;SDS011;53640;55.838;37.184;2023-04-24T03:21:16;8.55;;;6.45;;
65533;SDS011;53640;55.838;37.184;2023-04-24T03:23:43;9.75;;;6.88;;
65533;SDS011;53640;55.838;37.184;2023-04-24T03:26:10;8.48;;;5.82;;
65533;SDS011;53640;55.838;37.184;2023-04-24T03:28:42;14.57;;;6.57;;
65533;SDS011;53640;55.838;37.184;2023-04-24T03:31:09;11.48;;;7.13;;
65533;SDS011;53640;55.838;37.184;2023-04-24T03:33:36;11.10;;;7.15;;
65533;SDS011;53640;55.838;37.184;2023-04-24T03:36:04;14.80;;;8.35;;
65533;SDS011;53640;55.838;37.184;2023-04-24T03:38:39;9.50;;;6.68;;
65533;SDS011;53640;55.838;37.184;2023-04-24T03:41:35;12.70;;;6.85;;
65533;SDS011;53640;55.838;37.184;2023-04-24T03:44:10;11.85;;;6.65;;
65533;SDS011;53640;55.838;37.184;2023-04-24T03:46:40;8.70;;;6.72;;
65533;SDS011;53640;55.838;37.184;2023-04-24T03:49:11;12.18;;;6.28;;
65533;SDS011;53640;55.838;37.184;2023-04-24T03:51:42;12.07;;;7.03;;
65533;SDS011;53640;55.838;37.184;2023-04-24T03:54:18;8.45;;;6.45;;
65533;SDS011;53640;55.838;37.184;2023-04-24T03:57:11;9.30;;;6.50;;
65533;SDS011;53640;55.838;37.184;2023-04-24T03:59:48;10.90;;;6.60;;
65533;SDS011;53640;55.838;37.184;2023-04-24T04:02:20;12.02;;;6.47;;
65533;SDS011;53640;55.838;37.184;2023-04-24T04:04:47;11.57;;;6.55;;
65533;SDS011;53640;55.838;37.184;2023-04-24T04:07:14;11.45;;;7.15;;
65533;SDS011;53640;55.838;37.184;2023-04-24T04:09:42;10.95;;;6.20;;
65533;SDS011;53640;55.838;37.184;2023-04-24T04:12:08;10.95;;;6.57;;
65533;SDS011;53640;55.838;37.184;2023-04-24T04:14:37;8.50;;;6.13;;
65533;SDS011;53640;55.838;37.184;2023-04-24T04:17:06;9.40;;;6.40;;
65533;SDS011;53640;55.838;37.184;2023-04-24T04:23:54;10.43;;;6.38;;
65533;SDS011;53640;55.838;37.184;2023-04-24T04:31:23;13.27;;;7.50;;
65533;SDS011;53640;55.838;37.184;2023-04-24T04:34:15;12.73;;;8.13;;
65533;SDS011;53640;55.838;37.184;2023-04-24T04:36:55;12.35;;;7.53;;
65533;SDS011;53640;55.838;37.184;2023-04-24T04:40:14;10.45;;;6.70;;
65533;SDS011;53640;55.838;37.184;2023-04-24T04:42:58;15.45;;;8.10;;
65533;SDS011;53640;55.838;37.184;2023-04-24T04:45:37;13.73;;;7.40;;
65533;SDS011;53640;55.838;37.184;2023-04-24T04:51:08;12.65;;;7.78;;
65533;SDS011;53640;55.838;37.184;2023-04-24T04:53:45;12.30;;;8.32;;
65533;SDS011;53640;55.838;37.184;2023-04-24T04:56:15;10.60;;;6.88;;
65533;SDS011;53640;55.838;37.184;2023-04-24T04:58:55;8.85;;;6.43;;
65533;SDS011;53640;55.838;37.184;2023-04-24T05:01:28;12.60;;;7.20;;
65533;SDS011;53640;55.838;37.184;2023-04-24T05:30:57;13.25;;;7.55;;
65533;SDS011;53640;55.838;37.184;2023-04-24T05:44:17;14.98;;;7.47;;
65533;SDS011;53640;55.838;37.184;2023-04-24T05:46:44;14.30;;;7.63;;
65533;SDS011;53640;55.838;37.184;2023-04-24T05:49:11;10.30;;;7.07;;
65533;SDS011;53640;55.838;37.184;2023-04-24T06:00:08;7.43;;;4.72;;
65533;SDS011;53640;55.838;37.184;2023-04-24T06:06:20;13.18;;;5.65;;
65533;SDS011;53640;55.838;37.184;2023-04-24T06:12:32;7.95;;;5.38;;
65533;SDS011;53640;55.838;37.184;2023-04-24T06:15:05;16.33;;;7.35;;
65533;SDS011;53640;55.838;37.184;2023-04-24T06:17:51;9.63;;;6.40;;
65533;SDS011;53640;55.838;37.184;2023-04-24T06:20:19;10.05;;;5.75;;
65533;SDS011;53640;55.838;37.184;2023-04-24T06:22:46;9.85;;;5.63;;
65533;SDS011;53640;55.838;37.184;2023-04-24T06:25:13;19.25;;;6.97;;
65533;SDS011;53640;55.838;37.184;2023-04-24T06:27:41;18.70;;;7.18;;
65533;SDS011;53640;55.838;37.184;2023-04-24T06:30:08;9.15;;;5.70;;
65533;SDS011;53640;55.838;37.184;2023-04-24T06:32:34;12.20;;;7.25;;
65533;SDS011;53640;55.838;37.184;2023-04-24T06:35:24;9.13;;;5.68;;
65533;SDS011;53640;55.838;37.184;2023-04-24T06:37:51;8.35;;;5.78;;
65533;SDS011;53640;55.838;37.184;2023-04-24T06:40:17;15.98;;;6.70;;
65533;SDS011;53640;55.838;37.184;2023-04-24T06:42:46;11.48;;;6.18;;
65533;SDS011;53640;55.838;37.184;2023-04-24T06:45:16;11.43;;;6.38;;
65533;SDS011;53640;55.838;37.184;2023-04-24T06:47:42;8.45;;;6.18;;
65533;SDS011;53640;55.838;37.184;2023-04-24T06:50:13;17.60;;;7.10;;
65533;SDS011;53640;55.838;37.184;2023-04-24T06:52:40;12.43;;;6.53;;
65533;SDS011;53640;55.838;37.184;2023-04-24T06:55:14;8.85;;;5.95;;
65533;SDS011;53640;55.838;37.184;2023-04-24T06:57:42;8.00;;;5.88;;
65533;SDS011;53640;55.838;37.184;2023-04-24T07:00:12;11.38;;;6.95;;
65533;SDS011;53640;55.838;37.184;2023-04-24T07:02:39;9.93;;;6.20;;
65533;SDS011;53640;55.838;37.184;2023-04-24T07:05:06;11.70;;;7.45;;
65533;SDS011;53640;55.838;37.184;2023-04-24T07:07:34;9.05;;;6.03;;
65533;SDS011;53640;55.838;37.184;2023-04-24T07:10:04;8.35;;;5.60;;
65533;SDS011;53640;55.838;37.184;2023-04-24T07:12:31;6.63;;;5.22;;
65533;SDS011;53640;55.838;37.184;2023-04-24T07:14:59;8.77;;;6.40;;
65533;SDS011;53640;55.838;37.184;2023-04-24T07:17:26;18.83;;;6.82;;
65533;SDS011;53640;55.838;37.184;2023-04-24T07:19:54;7.80;;;5.75;;
65533;SDS011;53640;55.838;37.184;2023-04-24T07:22:20;16.25;;;6.68;;
65533;SDS011;53640;55.838;37.184;2023-04-24T07:24:47;12.77;;;6.22;;
65533;SDS011;53640;55.838;37.184;2023-04-24T07:27:19;7.57;;;5.20;;
65533;SDS011;53640;55.838;37.184;2023-04-24T07:29:54;21.58;;;6.13;;
65533;SDS011;53640;55.838;37.184;2023-04-24T07:32:32;11.15;;;5.80;;
65533;SDS011;53640;55.838;37.184;2023-04-24T07:35:16;16.05;;;5.65;;
65533;SDS011;53640;55.838;37.184;2023-04-24T07:41:41;9.27;;;5.47;;
65533;SDS011;53640;55.838;37.184;2023-04-24T07:48:04;9.45;;;5.45;;
65533;SDS011;53640;55.838;37.184;2023-04-24T07:51:20;6.65;;;4.32;;
65533;SDS011;53640;55.838;37.184;2023-04-24T07:58:37;4.70;;;3.92;;
65533;SDS011;53640;55.838;37.184;2023-04-24T08:05:33;3.30;;;3.00;;
65533;SDS011;53640;55.838;37.184;2023-04-24T08:08:00;3.42;;;2.80;;
65533;SDS011;53640;55.838;37.184;2023-04-24T08:10:27;4.72;;;2.70;;
65533;SDS011;53640;55.838;37.184;2023-04-24T08:12:54;4.93;;;3.75;;
65533;SDS011;53640;55.838;37.184;2023-04-24T08:15:21;4.25;;;3.65;;
65533;SDS011;53640;55.838;37.184;2023-04-24T08:17:48;4.15;;;3.70;;
65533;SDS011;53640;55.838;37.184;2023-04-24T08:20:18;4.35;;;3.22;;
65533;SDS011;53640;55.838;37.184;2023-04-24T08:22:45;8.02;;;3.20;;
65533;SDS011;53640;55.838;37.184;2023-04-24T08:32:59;7.95;;;3.10;;
65533;SDS011;53640;55.838;37.184;2023-04-24T08:35:40;5.82;;;3.45;;
65533;SDS011;53640;55.838;37.184;2023-04-24T08:38:42;5.30;;;3.85;;
65533;SDS011;53640;55.838;37.184;2023-04-24T08:41:11;7.97;;;3.65;;
65533;SDS011;53640;55.838;37.184;2023-04-24T08:43:43;3.85;;;3.00;;
65533;SDS011;53640;55.838;37.184;2023-04-24T08:49:14;3.35;;;2.70;;
65533;SDS011;53640;55.838;37.184;2023-04-24T08:51:44;3.58;;;3.05;;
65533;SDS011;53640;55.838;37.184;2023-04-24T08:54:13;5.95;;;3.00;;
65533;SDS011;53640;55.838;37.184;2023-04-24T08:56:43;3.50;;;2.88;;
65533;SDS011;53640;55.838;37.184;2023-04-24T08:59:10;5.97;;;2.80;;
65533;SDS011;53640;55.838;37.184;2023-04-24T09:01:40;2.85;;;2.60;;
65533;SDS011;53640;55.838;37.184;2023-04-24T09:04:09;3.13;;;2.80;;
65533;SDS011;53640;55.838;37.184;2023-04-24T09:06:37;3.17;;;2.88;;
65533;SDS011;53640;55.838;37.184;2023-04-24T09:22:21;5.55;;;3.60;;
65533;SDS011;53640;55.838;37.184;2023-04-24T09:58:00;4.75;;;3.55;;
65533;SDS011;53640;55.838;37.184;2023-04-24T10:00:32;40.65;;;6.07;;
65533;SDS011;53640;55.838;37.184;2023-04-24T10:03:05;5.97;;;3.30;;
65533;SDS011;53640;55.838;37.184;2023-04-24T10:05:36;3.75;;;3.20;;
65533;SDS011;53640;55.838;37.184;2023-04-24T10:08:06;6.30;;;3.15;;
65533;SDS011;53640;55.838;37.184;2023-04-24T10:10:37;8.65;;;4.05;;
65533;SDS011;53640;55.838;37.184;2023-04-24T10:13:05;3.15;;;2.83;;
65533;SDS011;53640;55.838;37.184;2023-04-24T10:15:37;6.50;;;3.80;;
65533;SDS011;53640;55.838;37.184;2023-04-24T10:18:05;5.80;;;3.35;;
65533;SDS011;53640;55.838;37.184;2023-04-24T10:20:33;3.38;;;3.08;;
65533;SDS011;53640;55.838;37.184;2023-04-24T10:23:00;5.72;;;3.67;;
65533;SDS011;53640;55.838;37.184;2023-04-24T10:25:28;6.03;;;4.03;;
65533;SDS011;53640;55.838;37.184;2023-04-24T10:27:58;3.15;;;2.90;;
65533;SDS011;53640;55.838;37.184;2023-04-24T10:30:28;5.22;;;3.72;;
65533;SDS011;53640;55.838;37.184;2023-04-24T10:33:05;3.60;;;3.22;;
65533;SDS011;53640;55.838;37.184;2023-04-24T10:35:36;3.97;;;3.22;;
65533;SDS011;53640;55.838;37.184;2023-04-24T10:38:08;5.35;;;3.50;;
65533;SDS011;53640;55.838;37.184;2023-04-24T10:40:41;5.30;;;3.50;;
65533;SDS011;53640;55.838;37.184;2023-04-24T10:43:44;9.38;;;4.00;;
65533;SDS011;53640;55.838;37.184;2023-04-24T10:46:52;10.98;;;3.72;;
65533;SDS011;53640;55.838;37.184;2023-04-24T10:49:39;5.32;;;3.70;;
65533;SDS011;53640;55.838;37.184;2023-04-24T10:52:08;5.03;;;3.60;;
65533;SDS011;53640;55.838;37.184;2023-04-24T10:54:42;3.28;;;2.97;;
65533;SDS011;53640;55.838;37.184;2023-04-24T11:00:21;3.40;;;3.03;;
65533;SDS011;53640;55.838;37.184;2023-04-24T11:02:52;6.32;;;3.80;;
65533;SDS011;53640;55.838;37.184;2023-04-24T11:05:36;7.18;;;3.28;;
65533;SDS011;53640;55.838;37.184;2023-04-24T11:08:25;7.22;;;3.90;;
65533;SDS011;53640;55.838;37.184;2023-04-24T11:11:04;4.45;;;3.58;;
65533;SDS011;53640;55.838;37.184;2023-04-24T11:16:42;3.13;;;2.88;;
65533;SDS011;53640;55.838;37.184;2023-04-24T11:19:24;4.03;;;3.53;;
65533;SDS011;53640;55.838;37.184;2023-04-24T11:25:04;5.15;;;3.35;;
65533;SDS011;53640;55.838;37.184;2023-04-24T11:27:41;4.50;;;3.70;;
65533;SDS011;53640;55.838;37.184;2023-04-24T11:30:10;4.57;;;3.10;;
65533;SDS011;53640;55.838;37.184;2023-04-24T11:32:41;4.18;;;3.58;;
65533;SDS011;53640;55.838;37.184;2023-04-24T11:35:19;8.95;;;3.53;;
65533;SDS011;53640;55.838;37.184;2023-04-24T11:37:51;4.22;;;3.20;;
65533;SDS011;53640;55.838;37.184;2023-04-24T11:40:21;3.00;;;2.80;;
65533;SDS011;53640;55.838;37.184;2023-04-24T11:42:50;3.25;;;2.95;;
65533;SDS011;53640;55.838;37.184;2023-04-24T11:51:02;4.68;;;3.28;;
65533;SDS011;53640;55.838;37.184;2023-04-24T11:53:30;4.45;;;3.38;;
65533;SDS011;53640;55.838;37.184;2023-04-24T11:56:24;4.60;;;3.30;;
65533;SDS011;53640;55.838;37.184;2023-04-24T11:58:52;3.17;;;2.88;;
65533;SDS011;53640;55.838;37.184;2023-04-24T12:01:43;5.38;;;3.15;;
65533;SDS011;53640;55.838;37.184;2023-04-24T12:04:26;4.75;;;3.92;;
65533;SDS011;53640;55.838;37.184;2023-04-24T12:07:00;6.35;;;3.67;;
65533;SDS011;53640;55.838;37.184;2023-04-24T12:12:24;7.55;;;2.75;;
65533;SDS011;53640;55.838;37.184;2023-04-24T12:15:09;3.45;;;2.97;;
65533;SDS011;53640;55.838;37.184;2023-04-24T12:18:22;9.18;;;3.88;;
65533;SDS011;53640;55.838;37.184;2023-04-24T12:21:20;2.97;;;2.67;;
65533;SDS011;53640;55.838;37.184;2023-04-24T13:14:46;2.38;;;2.17;;
65533;SDS011;53640;55.838;37.184;2023-04-24T13:17:16;5.75;;;2.75;;
65533;SDS011;53640;55.838;37.184;2023-04-24T13:19:44;3.97;;;2.50;;
65533;SDS011;53640;55.838;37.184;2023-04-24T13:35:23;2.90;;;2.58;;
65533;SDS011;53640;55.838;37.184;2023-04-24T13:39:35;3.00;;;2.70;;
65533;SDS011;53640;55.838;37.184;2023-04-24T13:52:39;3.10;;;2.80;;
65533;SDS011;53640;55.838;37.184;2023-04-24T13:56:15;4.85;;;3.28;;
65533;SDS011;53640;55.838;37.184;2023-04-24T14:13:02;6.85;;;3.60;;
65533;SDS011;53640;55.838;37.184;2023-04-24T15:43:24;5.65;;;2.80;;
65533;SDS011;53640;55.838;37.184;2023-04-24T15:46:19;6.57;;;4.82;;
65533;SDS011;53640;55.838;37.184;2023-04-24T15:53:24;5.05;;;3.38;;
65533;SDS011;53640;55.838;37.184;2023-04-24T16:03:36;3.30;;;2.90;;
65533;SDS011;53640;55.838;37.184;2023-04-24T16:06:08;2.78;;;2.20;;
65533;SDS011;53640;55.838;37.184;2023-04-24T16:16:25;4.88;;;2.60;;
65533;SDS011;53640;55.838;37.184;2023-04-24T16:20:42;2.90;;;2.47;;
65533;SDS011;53640;55.838;37.184;2023-04-24T16:23:09;2.65;;;2.30;;
65533;SDS011;53640;55.838;37.184;2023-04-24T16:25:35;3.25;;;2.30;;
65533;SDS011;53640;55.838;37.184;2023-04-24T16:28:05;4.88;;;2.40;;
65533;SDS011;53640;55.838;37.184;2023-04-24T16:30:34;2.22;;;2.00;;
65533;SDS011;53640;55.838;37.184;2023-04-24T16:36:57;2.95;;;2.05;;
65533;SDS011;53640;55.838;37.184;2023-04-24T16:39:34;3.50;;;3.03;;
65533;SDS011;53640;55.838;37.184;2023-04-24T16:44:35;7.60;;;3.67;;
65533;SDS011;53640;55.838;37.184;2023-04-24T16:47:06;4.47;;;3.30;;
65533;SDS011;53640;55.838;37.184;2023-04-24T16:49:39;4.80;;;3.10;;
65533;SDS011;53640;55.838;37.184;2023-04-24T16:52:09;5.97;;;3.00;;
65533;SDS011;53640;55.838;37.184;2023-04-24T16:54:51;4.30;;;3.10;;
65533;SDS011;53640;55.838;37.184;2023-04-24T16:58:11;4.97;;;3.10;;
65533;SDS011;53640;55.838;37.184;2023-04-24T17:09:20;5.28;;;3.10;;
65533;SDS011;53640;55.838;37.184;2023-04-24T17:11:53;5.97;;;3.30;;
65533;SDS011;53640;55.838;37.184;2023-04-24T17:14:32;5.50;;;2.90;;
65533;SDS011;53640;55.838;37.184;2023-04-24T17:17:27;6.35;;;3.40;;
65533;SDS011;53640;55.838;37.184;2023-04-24T17:19:56;3.58;;;3.08;;
65533;SDS011;53640;55.838;37.184;2023-04-24T17:22:23;4.30;;;2.95;;
65533;SDS011;53640;55.838;37.184;2023-04-24T17:24:51;6.13;;;2.85;;
65533;SDS011;53640;55.838;37.184;2023-04-24T17:27:17;5.18;;;2.80;;
65533;SDS011;53640;55.838;37.184;2023-04-24T17:29:53;5.78;;;3.65;;
65533;SDS011;53640;55.838;37.184;2023-04-24T17:32:31;4.80;;;3.00;;
65533;SDS011;53640;55.838;37.184;2023-04-24T17:35:10;5.15;;;3.20;;
65533;SDS011;53640;55.838;37.184;2023-04-24T17:37:48;5.63;;;3.15;;
65533;SDS011;53640;55.838;37.184;2023-04-24T17:40:16;4.47;;;2.67;;
65533;SDS011;53640;55.838;37.184;2023-04-24T17:42:47;6.35;;;3.83;;
65533;SDS011;53640;55.838;37.184;2023-04-24T17:45:18;9.90;;;3.47;;
65533;SDS011;53640;55.838;37.184;2023-04-24T17:47:57;7.18;;;3.53;;
65533;SDS011;53640;55.838;37.184;2023-04-24T17:50:24;5.90;;;3.60;;
65533;SDS011;53640;55.838;37.184;2023-04-24T17:52:55;8.70;;;3.80;;
65533;SDS011;53640;55.838;37.184;2023-04-24T17:55:54;11.07;;;3.80;;
65533;SDS011;53640;55.838;37.184;2023-04-24T17:58:33;4.40;;;3.10;;
65533;SDS011;53640;55.838;37.184;2023-04-24T18:01:03;5.90;;;3.25;;
65533;SDS011;53640;55.838;37.184;2023-04-24T18:03:30;7.35;;;3.63;;
65533;SDS011;53640;55.838;37.184;2023-04-24T18:05:57;3.30;;;3.00;;
65533;SDS011;53640;55.838;37.184;2023-04-24T18:08:24;4.18;;;2.80;;
65533;SDS011;53640;55.838;37.184;2023-04-24T18:10:51;6.60;;;3.10;;
65533;SDS011;53640;55.838;37.184;2023-04-24T18:13:18;13.63;;;3.55;;
65533;SDS011;53640;55.838;37.184;2023-04-24T18:15:46;5.28;;;3.13;;
65533;SDS011;53640;55.838;37.184;2023-04-24T18:18:13;5.38;;;3.50;;
65533;SDS011;53640;55.838;37.184;2023-04-24T18:20:42;4.65;;;2.92;;
65533;SDS011;53640;55.838;37.184;2023-04-24T18:23:09;5.15;;;3.13;;
65533;SDS011;53640;55.838;37.184;2023-04-24T18:25:39;4.47;;;3.22;;
65533;SDS011;53640;55.838;37.184;2023-04-24T18:28:54;5.63;;;3.30;;
65533;SDS011;53640;55.838;37.184;2023-04-24T18:32:11;5.15;;;3.10;;
65533;SDS011;53640;55.838;37.184;2023-04-24T18:34:30;5.50;;;3.13;;
65533;SDS011;53640;55.838;37.184;2023-04-24T18:36:57;6.43;;;3.15;;
65533;SDS011;53640;55.838;37.184;2023-04-24T18:39:36;5.85;;;3.40;;
65533;SDS011;53640;55.838;37.184;2023-04-24T18:45:45;6.88;;;3.53;;
65533;SDS011;53640;55.838;37.184;2023-04-24T18:48:18;7.40;;;3.05;;
65533;SDS011;53640;55.838;37.184;2023-04-24T18:54:47;4.25;;;3.28;;
65533;SDS011;53640;55.838;37.184;2023-04-24T19:00:42;6.45;;;3.20;;
65533;SDS011;53640;55.838;37.184;2023-04-24T19:03:09;6.25;;;3.35;;
65533;SDS011;53640;55.838;37.184;2023-04-24T19:05:47;11.07;;;3.78;;
65533;SDS011;53640;55.838;37.184;2023-04-24T19:08:13;5.63;;;3.15;;
65533;SDS011;53640;55.838;37.184;2023-04-24T19:10:51;4.28;;;2.92;;
65533;SDS011;53640;55.838;37.184;2023-04-24T19:13:20;6.30;;;3.28;;
65533;SDS011;53640;55.838;37.184;2023-04-24T19:16:29;3.50;;;2.58;;
65533;SDS011;53640;55.838;37.184;2023-04-24T19:19:01;2.75;;;2.50;;
65533;SDS011;53640;55.838;37.184;2023-04-24T19:21:28;2.97;;;2.60;;
65533;SDS011;53640;55.838;37.184;2023-04-24T19:24:14;7.95;;;2.58;;
65533;SDS011;53640;55.838;37.184;2023-04-24T19:26:54;5.95;;;2.97;;
65533;SDS011;53640;55.838;37.184;2023-04-24T19:29:36;4.45;;;3.17;;
65533;SDS011;53640;55.838;37.184;2023-04-24T19:32:05;5.78;;;3.35;;
65533;SDS011;53640;55.838;37.184;2023-04-24T19:34:31;6.05;;;3.30;;
65533;SDS011;53640;55.838;37.184;2023-04-24T19:37:02;5.47;;;3.40;;
65533;SDS011;53640;55.838;37.184;2023-04-24T19:39:32;4.70;;;3.10;;
65533;SDS011;53640;55.838;37.184;2023-04-24T19:42:01;4.25;;;3.22;;
65533;SDS011;53640;55.838;37.184;2023-04-24T19:44:29;6.55;;;3.33;;
65533;SDS011;53640;55.838;37.184;2023-04-24T19:46:56;3.00;;;2.70;;
65533;SDS011;53640;55.838;37.184;2023-04-24T19:49:23;2.83;;;2.53;;
65533;SDS011;53640;55.838;37.184;2023-04-24T19:51:58;3.15;;;2.10;;
65533;SDS011;53640;55.838;37.184;2023-04-24T19:54:38;3.35;;;2.25;;
65533;SDS011;53640;55.838;37.184;2023-04-24T19:59:34;1.75;;;1.50;;
65533;SDS011;53640;55.838;37.184;2023-04-24T20:02:07;2.10;;;1.33;;
65533;SDS011;53640;55.838;37.184;2023-04-24T20:04:38;11.63;;;2.00;;
65533;SDS011;53640;55.838;37.184;2023-04-24T20:07:05;16.70;;;4.05;;
65533;SDS011;53640;55.838;37.184;2023-04-24T20:09:32;19.27;;;5.13;;
65533;SDS011;53640;55.838;37.184;2023-04-24T20:11:58;14.70;;;4.43;;
65533;SDS011;53640;55.838;37.184;2023-04-24T20:14:26;8.35;;;4.05;;
65533;SDS011;53640;55.838;37.184;2023-04-24T20:16:53;9.40;;;3.65;;
65533;SDS011;53640;55.838;37.184;2023-04-24T20:19:20;10.70;;;3.83;;
65533;SDS011;53640;55.838;37.184;2023-04-24T20:21:47;9.73;;;3.67;;
65533;SDS011;53640;55.838;37.184;2023-04-24T20:24:13;8.02;;;3.15;;
65533;SDS011;53640;55.838;37.184;2023-04-24T20:26:41;7.00;;;3.40;;
65533;SDS011;53640;55.838;37.184;2023-04-24T20:29:31;11.43;;;3.97;;
65533;SDS011;53640;55.838;37.184;2023-04-24T20:32:00;9.23;;;3.78;;
65533;SDS011;53640;55.838;37.184;2023-04-24T20:34:27;4.78;;;2.92;;
65533;SDS011;53640;55.838;37.184;2023-04-24T20:36:54;3.20;;;2.70;;
65533;SDS011;53640;55.838;37.184;2023-04-24T20:39:25;5.15;;;2.50;;
65533;SDS011;53640;55.838;37.184;2023-04-24T20:41:52;6.95;;;2.65;;
65533;SDS011;53640;55.838;37.184;2023-04-24T20:44:20;4.90;;;2.42;;
65533;SDS011;53640;55.838;37.184;2023-04-24T20:46:47;8.30;;;3.58;;
65533;SDS011;53640;55.838;37.184;2023-04-24T20:49:14;4.90;;;3.30;;
65533;SDS011;53640;55.838;37.184;2023-04-24T20:51:42;7.05;;;3.40;;
65533;SDS011;53640;55.838;37.184;2023-04-24T20:54:10;3.97;;;3.08;;
65533;SDS011;53640;55.838;37.184;2023-04-24T20:56:37;6.88;;;3.00;;
65533;SDS011;53640;55.838;37.184;2023-04-24T20:59:04;8.23;;;3.08;;
65533;SDS011;53640;55.838;37.184;2023-04-24T21:01:30;3.55;;;2.72;;
65533;SDS011;53640;55.838;37.184;2023-04-24T21:03:57;9.13;;;3.45;;
65533;SDS011;53640;55.838;37.184;2023-04-24T21:06:23;4.35;;;3.13;;
65533;SDS011;53640;55.838;37.184;2023-04-24T21:08:50;3.45;;;2.58;;
65533;SDS011;53640;55.838;37.184;2023-04-24T21:11:16;4.13;;;2.85;;
65533;SDS011;53640;55.838;37.184;2023-04-24T21:16:15;11.82;;;3.30;;
65533;SDS011;53640;55.838;37.184;2023-04-24T21:18:41;16.50;;;3.92;;
65533;SDS011;53640;55.838;37.184;2023-04-24T21:21:15;10.00;;;3.28;;
65533;SDS011;53640;55.838;37.184;2023-04-24T21:23:44;7.05;;;3.63;;
65533;SDS011;53640;55.838;37.184;2023-04-24T21:26:12;9.93;;;3.92;;
65533;SDS011;53640;55.838;37.184;2023-04-24T21:28:39;7.15;;;3.80;;